Time;durP1;ratioP1;P1;durP2;ratioP2;P2;SDS_P1;SDS_P2;PMS_P1;PMS_P2;Temp;Humidity;BMP_temperature;BMP_pressure;BME280_temperature;BME280_humidity;BME280_pressure;Samples;Min_cycle;Max_cycle;Signal;HPM_P1;HPM_P2
2021/12/07 00:02:06;;;;;;;1999.90;999.90;;;;;;;;;;4975368;28;20044;-84
2021/12/07 00:04:34;;;;;;;1999.90;999.90;;;;;;;;;;4980872;28;20030;-86
2021/12/07 00:07:00;;;;;;;1999.90;999.90;;;;;;;;;;4977022;28;20034;-85
2021/12/07 00:09:26;;;;;;;1999.90;999.90;;;;;;;;;;4958704;28;20527;-85
2021/12/07 00:11:52;;;;;;;1999.90;999.90;;;;;;;;;;4977095;28;20040;-85
2021/12/07 00:14:25;;;;;;;1999.90;999.90;;;;;;;;;;4976786;28;20022;-85
2021/12/07 00:16:54;;;;;;;1999.90;999.90;;;;;;;;;;4947056;28;20045;-85
2021/12/07 00:19:21;;;;;;;1999.90;999.90;;;;;;;;;;4964089;28;20033;-85
2021/12/07 00:21:47;;;;;;;1999.90;999.90;;;;;;;;;;4964208;28;20030;-86
2021/12/07 00:24:14;;;;;;;1999.90;999.90;;;;;;;;;;4976960;28;20038;-85
2021/12/07 00:26:40;;;;;;;1999.90;999.90;;;;;;;;;;4956051;28;20030;-85
2021/12/07 00:29:07;;;;;;;1999.90;999.90;;;;;;;;;;4977973;28;20038;-84
2021/12/07 00:31:43;;;;;;;1999.90;999.90;;;;;;;;;;4979988;28;20100;-85
2021/12/07 00:34:17;;;;;;;1999.90;999.90;;;;;;;;;;4997484;28;20037;-85
2021/12/07 00:36:47;;;;;;;1999.90;999.90;;;;;;;;;;4980949;28;20092;-85
2021/12/07 00:39:13;;;;;;;1999.90;999.90;;;;;;;;;;4979818;28;20455;-85
2021/12/07 00:41:40;;;;;;;1999.90;999.90;;;;;;;;;;4980174;28;20022;-85
2021/12/07 00:44:05;;;;;;;1999.90;999.90;;;;;;;;;;4995721;28;20100;-85
2021/12/07 00:46:31;;;;;;;1999.90;999.90;;;;;;;;;;4995832;28;20038;-85
2021/12/07 00:48:57;;;;;;;1999.90;999.90;;;;;;;;;;4979533;28;20080;-85
2021/12/07 00:51:23;;;;;;;1999.90;999.90;;;;;;;;;;4979705;28;20113;-86
2021/12/07 00:53:49;;;;;;;1999.90;999.90;;;;;;;;;;4979565;28;20113;-85
2021/12/07 00:56:15;;;;;;;1999.90;999.90;;;;;;;;;;4979247;28;20109;-85
2021/12/07 00:58:42;;;;;;;1999.90;999.90;;;;;;;;;;4980006;28;20145;-85
2021/12/07 01:01:11;;;;;;;1999.90;999.90;;;;;;;;;;4984695;28;20026;-85
2021/12/07 01:03:38;;;;;;;1999.90;999.90;;;;;;;;;;4980850;28;20088;-86
2021/12/07 01:06:22;;;;;;;1999.90;999.90;;;;;;;;;;4996117;28;20527;-85
2021/12/07 01:25:09;;;;;;;1999.90;999.90;;;;;;;;;;4998234;28;20057;-86
2021/12/07 01:27:36;;;;;;;1999.90;999.90;;;;;;;;;;4979342;28;20033;-86
2021/12/07 01:30:16;;;;;;;1999.90;999.90;;;;;;;;;;4979300;28;20034;-86
2021/12/07 01:32:59;;;;;;;1999.90;999.90;;;;;;;;;;4997096;28;20030;-85
2021/12/07 01:41:11;;;;;;;1999.90;999.90;;;;;;;;;;4986837;28;20069;-85
2021/12/07 01:59:35;;;;;;;1999.90;999.90;;;;;;;;;;4992342;28;20041;-87
2021/12/07 02:02:08;;;;;;;1999.90;999.90;;;;;;;;;;4990025;28;20068;-86
2021/12/07 02:04:35;;;;;;;1999.90;999.90;;;;;;;;;;4962836;28;20095;-86
2021/12/07 02:07:04;;;;;;;1999.90;999.90;;;;;;;;;;4978276;28;20034;-87
2021/12/07 02:09:29;;;;;;;1999.90;999.90;;;;;;;;;;4962997;28;20057;-86
2021/12/07 02:12:00;;;;;;;1999.90;999.90;;;;;;;;;;4995295;28;20041;-86
2021/12/07 02:14:27;;;;;;;1999.90;999.90;;;;;;;;;;4974956;28;20027;-85
2021/12/07 02:17:02;;;;;;;1999.90;999.90;;;;;;;;;;4959438;28;20030;-86
2021/12/07 02:19:29;;;;;;;1999.90;999.90;;;;;;;;;;4988427;28;20093;-86
2021/12/07 02:21:56;;;;;;;1516.03;752.10;;;;;;;;;;4977956;28;20034;-86
2021/12/07 02:24:21;;;;;;;1999.90;999.90;;;;;;;;;;4994617;28;20088;-86
2021/12/07 02:26:49;;;;;;;1999.90;999.90;;;;;;;;;;4978306;28;20022;-87
2021/12/07 02:29:15;;;;;;;1999.90;999.90;;;;;;;;;;4962784;28;20060;-87
2021/12/07 02:31:41;;;;;;;1999.90;999.90;;;;;;;;;;4994952;28;20038;-87
2021/12/07 02:34:06;;;;;;;1999.90;999.90;;;;;;;;;;4978388;28;20041;-87
2021/12/07 02:36:33;;;;;;;1999.90;999.90;;;;;;;;;;4978797;28;20069;-87
2021/12/07 02:38:59;;;;;;;1999.90;999.90;;;;;;;;;;4978550;28;20030;-86
2021/12/07 02:41:26;;;;;;;1999.90;999.90;;;;;;;;;;4962568;28;20123;-87
2021/12/07 02:43:52;;;;;;;1999.90;999.90;;;;;;;;;;4975349;28;20028;-87
2021/12/07 02:46:17;;;;;;;1999.90;999.90;;;;;;;;;;4975688;28;20034;-86
2021/12/07 02:48:43;;;;;;;1999.90;999.90;;;;;;;;;;4943237;28;20038;-87
2021/12/07 02:51:10;;;;;;;1999.90;999.90;;;;;;;;;;4945551;28;20026;-86
2021/12/07 02:53:35;;;;;;;1999.90;999.90;;;;;;;;;;4960389;28;20144;-87
2021/12/07 02:56:03;;;;;;;1999.90;999.90;;;;;;;;;;4982419;28;20125;-87
2021/12/07 02:58:29;;;;;;;1999.90;999.90;;;;;;;;;;4982568;28;20034;-88
2021/12/07 03:01:04;;;;;;;1999.90;999.90;;;;;;;;;;4982166;28;20503;-87
2021/12/07 03:03:49;;;;;;;1999.90;999.90;;;;;;;;;;4967741;28;20022;-87
2021/12/07 03:06:25;;;;;;;1999.90;999.90;;;;;;;;;;4984896;28;20476;-87
2021/12/07 03:27:53;;;;;;;1999.90;999.90;;;;;;;;;;5000179;28;20029;-87
2021/12/07 03:30:19;;;;;;;1999.90;999.90;;;;;;;;;;4981361;28;20076;-88
2021/12/07 03:32:44;;;;;;;1999.90;999.90;;;;;;;;;;4981395;28;20475;-88
2021/12/07 03:35:09;;;;;;;1999.90;999.90;;;;;;;;;;4997814;28;20057;-88
2021/12/07 03:37:35;;;;;;;1999.90;999.90;;;;;;;;;;4981801;28;20128;-87
2021/12/07 03:40:00;;;;;;;1083.55;507.80;;;;;;;;;;4997579;28;20034;-88
2021/12/07 03:42:26;;;;;;;1999.90;999.90;;;;;;;;;;4981145;28;20116;-87
2021/12/07 03:44:52;;;;;;;1999.90;999.90;;;;;;;;;;4965303;28;20112;-87
2021/12/07 03:47:18;;;;;;;1999.90;999.90;;;;;;;;;;4965116;28;20423;-88
2021/12/07 03:49:43;;;;;;;1999.90;999.90;;;;;;;;;;4997745;28;20048;-88
2021/12/07 03:52:09;;;;;;;1999.90;999.90;;;;;;;;;;4981446;28;20030;-88
2021/12/07 03:54:36;;;;;;;1999.90;999.90;;;;;;;;;;4981518;28;20030;-88
2021/12/07 03:57:04;;;;;;;1999.90;999.90;;;;;;;;;;4981207;28;20076;-87
2021/12/07 03:59:31;;;;;;;1999.90;999.90;;;;;;;;;;4981716;28;20026;-88
2021/12/07 04:01:56;;;;;;;1999.90;999.90;;;;;;;;;;4976753;28;20062;-87
2021/12/07 04:04:22;;;;;;;1999.90;999.90;;;;;;;;;;4961748;28;20552;-88
2021/12/07 04:06:47;;;;;;;1999.90;999.90;;;;;;;;;;4961542;28;20037;-88
2021/12/07 04:09:12;;;;;;;1999.90;999.90;;;;;;;;;;4977448;28;20120;-88
2021/12/07 04:11:38;;;;;;;1999.90;999.90;;;;;;;;;;4984087;28;20068;-88
2021/12/07 04:14:03;;;;;;;1999.90;999.90;;;;;;;;;;4982328;28;20064;-88
2021/12/07 04:16:29;;;;;;;1999.90;999.90;;;;;;;;;;4980632;28;20038;-88
2021/12/07 04:18:54;;;;;;;1999.90;999.90;;;;;;;;;;4964570;28;20026;-88
2021/12/07 04:21:20;;;;;;;1999.90;999.90;;;;;;;;;;4979482;28;20038;-88
2021/12/07 04:23:45;;;;;;;1999.90;999.90;;;;;;;;;;4963958;28;20041;-88
2021/12/07 04:26:11;;;;;;;1999.90;999.90;;;;;;;;;;4980879;28;20037;-88
2021/12/07 04:28:36;;;;;;;1999.90;999.90;;;;;;;;;;4964947;28;20224;-87
2021/12/07 04:31:05;;;;;;;1999.90;999.90;;;;;;;;;;4980256;28;20490;-88
2021/12/07 04:33:32;;;;;;;1999.90;999.90;;;;;;;;;;4980970;28;20492;-88
2021/12/07 04:35:58;;;;;;;1999.90;999.90;;;;;;;;;;4980995;28;20127;-88
2021/12/07 04:38:26;;;;;;;1999.90;999.90;;;;;;;;;;4964693;28;20467;-87
2021/12/07 04:40:53;;;;;;;1999.90;999.90;;;;;;;;;;4964636;28;20161;-88
2021/12/07 04:43:20;;;;;;;1999.90;999.90;;;;;;;;;;4980407;28;20480;-88
2021/12/07 04:46:03;;;;;;;1999.90;999.90;;;;;;;;;;4964367;28;20854;-88
2021/12/07 04:59:13;;;;;;;1999.90;999.90;;;;;;;;;;4999089;28;20568;-89
2021/12/07 05:01:39;;;;;;;1999.90;999.90;;;;;;;;;;4960999;28;20034;-88
2021/12/07 05:04:13;;;;;;;1999.90;999.90;;;;;;;;;;4966418;28;20113;-89
2021/12/07 05:06:47;;;;;;;1999.90;999.90;;;;;;;;;;4981054;28;20033;-88
2021/12/07 05:14:29;;;;;;;1999.90;999.90;;;;;;;;;;4995767;28;20034;-88
2021/12/07 05:25:51;;;;;;;1999.90;999.90;;;;;;;;;;4977561;28;20412;-88
2021/12/07 05:39:28;;;;;;;1999.90;999.90;;;;;;;;;;4998604;28;20041;-88
2021/12/07 05:41:55;;;;;;;1999.90;999.90;;;;;;;;;;4979216;28;20121;-89
2021/12/07 05:44:20;;;;;;;1999.90;999.90;;;;;;;;;;4976318;28;20133;-89
2021/12/07 05:46:45;;;;;;;1999.90;999.90;;;;;;;;;;4960002;28;20476;-84
2021/12/07 05:49:11;;;;;;;1999.90;999.90;;;;;;;;;;4974759;28;20104;-89
2021/12/07 05:51:37;;;;;;;1999.90;999.90;;;;;;;;;;4979312;28;20037;-89
2021/12/07 05:54:04;;;;;;;1999.90;999.90;;;;;;;;;;4979711;28;20121;-88
2021/12/07 05:56:29;;;;;;;1999.90;999.90;;;;;;;;;;4979440;28;20026;-86
2021/12/07 05:58:56;;;;;;;1999.90;999.90;;;;;;;;;;4978697;28;20159;-86
2021/12/07 06:01:21;;;;;;;1999.90;999.90;;;;;;;;;;4997306;28;20451;-85
2021/12/07 06:03:47;;;;;;;1999.90;999.90;;;;;;;;;;4975434;28;20061;-84
2021/12/07 06:06:12;;;;;;;1999.90;999.90;;;;;;;;;;4978320;28;20045;-83
2021/12/07 06:08:38;;;;;;;1999.90;999.90;;;;;;;;;;4968083;28;20385;-84
2021/12/07 06:11:03;;;;;;;1999.90;999.90;;;;;;;;;;4993956;28;20072;-83
2021/12/07 06:13:28;;;;;;;1999.90;999.90;;;;;;;;;;4977752;28;20025;-81
2021/12/07 06:15:54;;;;;;;1999.90;999.90;;;;;;;;;;4972259;28;20091;-81
2021/12/07 06:18:19;;;;;;;1999.90;999.90;;;;;;;;;;4976044;28;20045;-80
2021/12/07 06:20:45;;;;;;;1999.90;999.90;;;;;;;;;;4992631;28;20042;-82
2021/12/07 06:23:12;;;;;;;1999.90;999.90;;;;;;;;;;4977414;28;20033;-81
2021/12/07 06:25:37;;;;;;;1999.90;999.90;;;;;;;;;;4975155;28;20060;-81
2021/12/07 06:28:03;;;;;;;1999.90;999.90;;;;;;;;;;4962439;28;20030;-82
2021/12/07 06:30:28;;;;;;;1999.90;999.90;;;;;;;;;;4997867;28;20037;-81
2021/12/07 06:32:54;;;;;;;1999.90;999.90;;;;;;;;;;4982042;28;20041;-81
2021/12/07 06:35:19;;;;;;;1999.90;999.90;;;;;;;;;;4965933;28;20041;-82
2021/12/07 06:37:45;;;;;;;1999.90;999.90;;;;;;;;;;4997647;28;20111;-82
2021/12/07 06:40:11;;;;;;;1999.90;999.90;;;;;;;;;;4981534;28;20447;-82
2021/12/07 06:42:38;;;;;;;1999.90;999.90;;;;;;;;;;4978360;28;20030;-82
2021/12/07 06:45:08;;;;;;;1999.90;999.90;;;;;;;;;;4962445;28;20039;-82
2021/12/07 06:47:34;;;;;;;1999.90;999.90;;;;;;;;;;4966613;28;20443;-82
2021/12/07 06:50:02;;;;;;;1999.90;999.90;;;;;;;;;;5007802;28;20034;-82
2021/12/07 06:52:27;;;;;;;1999.90;999.90;;;;;;;;;;5003055;28;20030;-82
2021/12/07 06:54:53;;;;;;;1999.90;999.90;;;;;;;;;;4981622;28;20452;-82
2021/12/07 06:57:18;;;;;;;1999.90;999.90;;;;;;;;;;4981424;28;20117;-83
2021/12/07 06:59:45;;;;;;;1999.90;999.90;;;;;;;;;;4964766;28;20385;-83
2021/12/07 07:02:11;;;;;;;1999.90;999.90;;;;;;;;;;4994181;28;20034;-82
2021/12/07 07:04:36;;;;;;;1999.90;999.90;;;;;;;;;;4962550;28;20046;-83
2021/12/07 07:07:02;;;;;;;1999.90;999.90;;;;;;;;;;4979863;28;20034;-82
2021/12/07 07:09:27;;;;;;;1999.90;999.90;;;;;;;;;;4964528;28;20112;-83
2021/12/07 07:11:52;;;;;;;1999.90;999.90;;;;;;;;;;4981172;28;20030;-83
2021/12/07 07:14:18;;;;;;;1999.90;999.90;;;;;;;;;;4977741;28;20041;-86
2021/12/07 07:16:43;;;;;;;1999.90;999.90;;;;;;;;;;4977884;28;20053;-86
2021/12/07 07:19:09;;;;;;;1999.90;999.90;;;;;;;;;;4962189;28;20034;-86
2021/12/07 07:21:34;;;;;;;1999.90;999.90;;;;;;;;;;4977909;28;20416;-86
2021/12/07 07:23:59;;;;;;;1999.90;999.90;;;;;;;;;;4962086;28;20484;-86
2021/12/07 07:26:25;;;;;;;1999.90;999.90;;;;;;;;;;4945682;28;20022;-86
2021/12/07 07:28:50;;;;;;;1999.90;999.90;;;;;;;;;;4945764;28;20030;-88
2021/12/07 07:31:16;;;;;;;1609.63;758.35;;;;;;;;;;4946819;28;20476;-90
2021/12/07 07:33:42;;;;;;;1999.90;999.90;;;;;;;;;;4946606;28;20477;-90
2021/12/07 07:36:08;;;;;;;1578.13;755.97;;;;;;;;;;4978381;28;20026;-91
2021/12/07 07:38:33;;;;;;;1999.90;999.90;;;;;;;;;;4977446;28;20037;-90
2021/12/07 07:40:58;;;;;;;1999.90;999.90;;;;;;;;;;4945874;28;20030;-83
2021/12/07 07:43:24;;;;;;;1999.90;999.90;;;;;;;;;;4977866;28;20045;-84
2021/12/07 07:45:50;;;;;;;1999.90;999.90;;;;;;;;;;4961414;28;20503;-84
2021/12/07 07:48:16;;;;;;;1560.10;754.03;;;;;;;;;;4945625;28;20538;-87
2021/12/07 07:50:42;;;;;;;1561.47;754.10;;;;;;;;;;4977989;28;20034;-85
2021/12/07 07:53:07;;;;;;;1999.90;999.90;;;;;;;;;;4945392;28;20034;-86
2021/12/07 07:55:35;;;;;;;1999.90;999.90;;;;;;;;;;4977900;28;20109;-87
2021/12/07 07:58:02;;;;;;;1537.80;752.67;;;;;;;;;;4946335;28;20124;-89
2021/12/07 08:00:28;;;;;;;1999.90;999.90;;;;;;;;;;4977463;28;20026;-86
2021/12/07 08:02:54;;;;;;;1999.90;999.90;;;;;;;;;;4980006;28;20037;-87
2021/12/07 08:05:19;;;;;;;1999.90;999.90;;;;;;;;;;4980409;28;20507;-86
2021/12/07 08:07:47;;;;;;;1999.90;999.90;;;;;;;;;;4984378;28;20025;-85
2021/12/07 08:10:13;;;;;;;1999.90;999.90;;;;;;;;;;5015936;28;20022;-85
2021/12/07 08:12:39;;;;;;;1999.90;999.90;;;;;;;;;;4983967;28;20029;-87
2021/12/07 08:15:04;;;;;;;1999.90;999.90;;;;;;;;;;4970341;28;20045;-85
2021/12/07 08:17:30;;;;;;;1999.90;999.90;;;;;;;;;;4992692;28;20026;-86
2021/12/07 08:19:55;;;;;;;1999.90;999.90;;;;;;;;;;4993395;28;20507;-84
2021/12/07 08:22:21;;;;;;;1550.25;755.10;;;;;;;;;;4976640;28;20125;-84
2021/12/07 08:24:48;;;;;;;1350.80;523.30;;;;;;;;;;4976698;28;20497;-84
2021/12/07 08:27:13;;;;;;;1999.90;999.90;;;;;;;;;;4976817;28;20038;-83
2021/12/07 08:29:39;;;;;;;1999.90;999.90;;;;;;;;;;4976185;28;20504;-83
2021/12/07 08:32:05;;;;;;;1635.15;759.17;;;;;;;;;;5008768;28;20069;-84
2021/12/07 08:34:30;;;;;;;1999.90;999.90;;;;;;;;;;4976691;28;20057;-83
2021/12/07 08:36:55;;;;;;;1999.90;999.90;;;;;;;;;;4992495;28;20038;-83
2021/12/07 08:39:21;;;;;;;1346.25;526.97;;;;;;;;;;5008850;28;20130;-83
2021/12/07 08:41:46;;;;;;;1999.90;999.90;;;;;;;;;;4992666;28;20453;-84
2021/12/07 08:44:12;;;;;;;1999.90;999.90;;;;;;;;;;4976072;28;20132;-83
2021/12/07 08:46:37;;;;;;;1999.90;999.90;;;;;;;;;;4976229;28;20034;-84
2021/12/07 08:49:03;;;;;;;1999.90;999.90;;;;;;;;;;4991998;28;20038;-84
2021/12/07 08:51:28;;;;;;;1999.90;999.90;;;;;;;;;;4975824;28;20089;-84
2021/12/07 08:54:00;;;;;;;1528.47;534.58;;;;;;;;;;4976255;28;20030;-83
2021/12/07 09:01:57;;;;;;;1847.65;789.10;;;;;;;;;;5011842;28;20034;-84
2021/12/07 09:04:22;;;;;;;1340.00;319.08;;;;;;;;;;4980002;28;20064;-84
2021/12/07 09:06:48;;;;;;;1901.38;810.15;;;;;;;;;;4962764;28;20022;-84
2021/12/07 09:09:14;;;;;;;1814.22;780.78;;;;;;;;;;4979085;28;20037;-84
2021/12/07 09:11:40;;;;;;;1599.68;184.32;;;;;;;;;;4982260;28;20156;-84
2021/12/07 09:14:09;;;;;;;1964.03;238.38;;;;;;;;;;4996122;28;20033;-83
2021/12/07 09:16:34;;;;;;;1933.00;810.80;;;;;;;;;;4979441;28;20099;-83
2021/12/07 09:19:00;;;;;;;1997.35;211.23;;;;;;;;;;4978928;28;20033;-84
2021/12/07 09:21:25;;;;;;;1774.22;785.67;;;;;;;;;;4995097;28;20458;-85
2021/12/07 09:23:51;;;;;;;1999.90;999.90;;;;;;;;;;4979094;28;20060;-85
2021/12/07 09:26:16;;;;;;;1620.82;192.52;;;;;;;;;;4963019;28;20036;-84
2021/12/07 09:28:42;;;;;;;1990.65;626.95;;;;;;;;;;4978964;28;20033;-84
2021/12/07 09:31:08;;;;;;;1860.20;237.57;;;;;;;;;;4978702;28;20057;-82
2021/12/07 09:33:33;;;;;;;1999.90;999.90;;;;;;;;;;4978750;28;20046;-85
2021/12/07 09:35:59;;;;;;;1999.90;999.90;;;;;;;;;;4978784;28;20045;-84
2021/12/07 09:38:24;;;;;;;1799.28;237.05;;;;;;;;;;4978857;28;20030;-85
2021/12/07 09:40:50;;;;;;;1999.90;999.90;;;;;;;;;;4962082;28;20036;-86
2021/12/07 09:43:16;;;;;;;1915.38;145.73;;;;;;;;;;4962882;28;20038;-86
2021/12/07 09:45:42;;;;;;;1475.80;331.23;;;;;;;;;;4978905;28;20029;-88
2021/12/07 09:48:08;;;;;;;1733.47;775.15;;;;;;;;;;4979005;28;20038;-88
2021/12/07 09:50:34;;;;;;;1999.90;999.90;;;;;;;;;;4978966;28;20038;-87
2021/12/07 09:53:03;;;;;;;1999.90;822.53;;;;;;;;;;4962510;28;20034;-87
2021/12/07 09:55:30;;;;;;;1309.78;139.80;;;;;;;;;;4963088;28;20124;-87
2021/12/07 09:57:55;;;;;;;1223.15;208.75;;;;;;;;;;4978441;28;20040;-85
2021/12/07 10:00:22;;;;;;;1834.25;219.68;;;;;;;;;;4978083;28;20034;-87
2021/12/07 10:02:49;;;;;;;1935.20;586.72;;;;;;;;;;4975957;28;20038;-87
2021/12/07 10:05:17;;;;;;;1999.90;809.70;;;;;;;;;;4959118;28;20076;-83
2021/12/07 10:07:43;;;;;;;1999.90;999.90;;;;;;;;;;4982822;28;20483;-86
2021/12/07 10:10:17;;;;;;;1743.13;369.02;;;;;;;;;;4997581;28;20046;-82
2021/12/07 10:12:43;;;;;;;1844.03;776.97;;;;;;;;;;4999038;28;20471;-83
2021/12/07 10:15:08;;;;;;;1703.43;582.25;;;;;;;;;;5013839;28;20037;-83
2021/12/07 10:17:36;;;;;;;1547.85;198.45;;;;;;;;;;4997913;28;20041;-82
2021/12/07 10:20:24;;;;;;;1999.90;999.90;;;;;;;;;;5014120;28;20072;-82
2021/12/07 10:22:51;;;;;;;1999.90;999.90;;;;;;;;;;4980581;28;20022;-82
2021/12/07 10:25:26;;;;;;;1381.38;182.93;;;;;;;;;;5013322;28;20061;-82
2021/12/07 10:27:52;;;;;;;1967.70;791.38;;;;;;;;;;4981174;28;20029;-82
2021/12/07 10:30:20;;;;;;;1419.88;169.35;;;;;;;;;;4997303;28;20032;-81
2021/12/07 10:33:03;;;;;;;1718.07;236.15;;;;;;;;;;4981004;28;20028;-82
2021/12/07 10:35:31;;;;;;;942.10;69.35;;;;;;;;;;4997902;28;20083;-82
2021/12/07 10:38:13;;;;;;;1999.90;999.90;;;;;;;;;;4979995;28;20083;-83
2021/12/07 10:41:02;;;;;;;1431.28;348.90;;;;;;;;;;4997419;28;20040;-85
2021/12/07 10:43:49;;;;;;;1818.45;784.80;;;;;;;;;;4998349;28;20426;-86
2021/12/07 10:46:52;;;;;;;1757.13;409.17;;;;;;;;;;5013724;28;20056;-85
2021/12/07 10:49:25;;;;;;;1461.60;206.23;;;;;;;;;;4997330;28;20124;-87
2021/12/07 10:52:11;;;;;;;1789.00;570.80;;;;;;;;;;5013331;28;20495;-86
2021/12/07 10:54:50;;;;;;;1481.95;217.10;;;;;;;;;;5013995;28;20033;-85
2021/12/07 10:57:21;;;;;;;1589.97;192.73;;;;;;;;;;5013972;28;20033;-85
2021/12/07 10:59:55;;;;;;;1999.90;999.90;;;;;;;;;;4997488;28;20364;-87
2021/12/07 11:02:21;;;;;;;1762.43;218.23;;;;;;;;;;4963253;28;20034;-85
2021/12/07 11:04:47;;;;;;;1999.90;999.90;;;;;;;;;;4957970;28;20033;-85
2021/12/07 11:07:24;;;;;;;1779.97;770.95;;;;;;;;;;4974086;28;20504;-83
2021/12/07 11:10:27;;;;;;;1999.90;999.90;;;;;;;;;;4974910;28;20030;-84
2021/12/07 11:13:12;;;;;;;1999.90;999.90;;;;;;;;;;4977716;28;20053;-85
2021/12/07 11:15:51;;;;;;;1442.32;537.85;;;;;;;;;;4999431;28;20065;-85
2021/12/07 11:18:20;;;;;;;1706.55;547.22;;;;;;;;;;4982125;28;20033;-85
2021/12/07 11:20:45;;;;;;;1020.40;84.38;;;;;;;;;;4981558;28;20072;-85
2021/12/07 11:23:31;;;;;;;1796.47;788.10;;;;;;;;;;4965507;28;20038;-85
2021/12/07 11:31:21;;;;;;;1878.63;780.60;;;;;;;;;;5013246;28;20364;-85
2021/12/07 11:33:47;;;;;;;1999.90;999.90;;;;;;;;;;5013807;28;20480;-84
2021/12/07 11:36:28;;;;;;;1584.30;538.90;;;;;;;;;;4981292;28;20101;-84
2021/12/07 11:38:54;;;;;;;1258.68;94.15;;;;;;;;;;5013317;28;20037;-85
2021/12/07 11:41:26;;;;;;;1509.72;539.13;;;;;;;;;;4964743;28;20459;-85
2021/12/07 11:43:56;;;;;;;;;;;;;;;;;;4998033;28;20096;-85
2021/12/07 11:46:23;;;;;;;1999.90;999.90;;;;;;;;;;4996793;28;20418;-85
2021/12/07 11:48:48;;;;;;;1361.20;555.20;;;;;;;;;;4980846;28;20053;-85
2021/12/07 11:51:13;;;;;;;1778.30;776.40;;;;;;;;;;4980689;28;20041;-84
2021/12/07 11:53:39;;;;;;;1999.90;999.90;;;;;;;;;;4964760;28;20103;-85
2021/12/07 11:56:04;;;;;;;1504.68;539.03;;;;;;;;;;4980530;28;20046;-84
2021/12/07 11:58:30;;;;;;;1999.90;999.90;;;;;;;;;;4980467;28;20041;-84
2021/12/07 12:00:55;;;;;;;1861.97;783.33;;;;;;;;;;4960741;28;20045;-84
2021/12/07 12:03:22;;;;;;;1999.90;999.90;;;;;;;;;;4977776;28;20080;-85
2021/12/07 12:05:48;;;;;;;1999.90;999.90;;;;;;;;;;4945270;28;20528;-85
2021/12/07 12:08:16;;;;;;;1999.90;999.90;;;;;;;;;;4977198;28;20045;-85
2021/12/07 12:10:44;;;;;;;1192.18;112.40;;;;;;;;;;4984393;28;20025;-86
2021/12/07 12:13:17;;;;;;;1257.45;97.10;;;;;;;;;;5016182;28;20034;-85
2021/12/07 12:16:21;;;;;;;1999.90;999.90;;;;;;;;;;4996829;28;20046;-85
2021/12/07 12:19:13;;;;;;;408.02;27.35;;;;;;;;;;4977132;28;20030;-85
2021/12/07 12:21:55;;;;;;;1999.90;999.90;;;;;;;;;;4988698;28;20497;-85
2021/12/07 12:24:33;;;;;;;1999.90;999.90;;;;;;;;;;4977145;28;20463;-84
2021/12/07 12:27:08;;;;;;;1999.90;999.90;;;;;;;;;;4960900;28;20034;-84
2021/12/07 12:29:34;;;;;;;1999.90;999.90;;;;;;;;;;4959840;28;20457;-84
2021/12/07 12:31:59;;;;;;;1763.20;773.28;;;;;;;;;;4976549;28;20073;-83
2021/12/07 12:34:26;;;;;;;1999.90;999.90;;;;;;;;;;4993407;28;20389;-91
2021/12/07 12:37:08;;;;;;;1999.90;999.90;;;;;;;;;;4964152;28;20117;-89
2021/12/07 12:39:40;;;;;;;926.50;283.65;;;;;;;;;;4996722;28;20034;-89
2021/12/07 12:42:05;;;;;;;1999.90;999.90;;;;;;;;;;5013107;28;20030;-90
2021/12/07 12:44:34;;;;;;;1999.90;999.90;;;;;;;;;;4978480;28;20041;-90
2021/12/07 12:46:59;;;;;;;1999.90;999.90;;;;;;;;;;4996581;28;20088;-88
2021/12/07 12:49:24;;;;;;;747.28;49.70;;;;;;;;;;4996273;28;20034;-90
2021/12/07 12:51:50;;;;;;;1999.90;999.90;;;;;;;;;;4980208;28;20030;-90
2021/12/07 12:54:17;;;;;;;1647.90;761.95;;;;;;;;;;4980212;28;20574;-89
2021/12/07 12:56:42;;;;;;;1999.90;999.90;;;;;;;;;;4978860;28;20034;-88
2021/12/07 12:59:09;;;;;;;1999.90;999.90;;;;;;;;;;4996131;28;20046;-90
2021/12/07 13:01:39;;;;;;;1999.90;999.90;;;;;;;;;;4964106;28;20060;-90
2021/12/07 13:04:05;;;;;;;1679.72;774.70;;;;;;;;;;4964514;28;20115;-90
2021/12/07 13:06:31;;;;;;;1359.30;520.75;;;;;;;;;;4994504;28;20496;-90
2021/12/07 13:09:02;;;;;;;650.33;68.10;;;;;;;;;;4995642;28;20065;-88
2021/12/07 13:11:34;;;;;;;719.67;51.75;;;;;;;;;;4997033;28;20127;-89
2021/12/07 13:13:59;;;;;;;1999.90;999.90;;;;;;;;;;4995427;28;20491;-90
2021/12/07 13:16:25;;;;;;;1999.90;999.90;;;;;;;;;;4963809;28;20038;-90
2021/12/07 13:18:59;;;;;;;1999.90;999.90;;;;;;;;;;4963571;28;20041;-90
2021/12/07 13:21:28;;;;;;;1999.90;999.90;;;;;;;;;;4964052;28;20080;-90
2021/12/07 13:24:02;;;;;;;1999.90;999.90;;;;;;;;;;4979965;28;20034;-91
2021/12/07 13:26:33;;;;;;;1999.90;999.90;;;;;;;;;;4995392;28;20071;-89
2021/12/07 13:29:04;;;;;;;1652.07;761.88;;;;;;;;;;4962295;28;20038;-92
2021/12/07 13:31:41;;;;;;;1999.90;999.90;;;;;;;;;;4995832;28;20025;-93
2021/12/07 13:34:08;;;;;;;1999.90;999.90;;;;;;;;;;4963580;28;20125;-92
2021/12/07 13:36:41;;;;;;;1999.90;999.90;;;;;;;;;;4995711;28;20053;-92
2021/12/07 13:39:12;;;;;;;1346.30;527.17;;;;;;;;;;4975985;28;20315;-92
2021/12/07 13:42:03;;;;;;;1999.90;999.90;;;;;;;;;;5010131;28;20057;-92
2021/12/07 13:44:55;;;;;;;1659.85;765.58;;;;;;;;;;5011803;28;20034;-91
2021/12/07 13:47:32;;;;;;;1445.95;542.80;;;;;;;;;;4980418;28;20052;-90
2021/12/07 13:50:00;;;;;;;1999.90;999.90;;;;;;;;;;4974464;28;20046;-88
2021/12/07 13:52:39;;;;;;;1999.90;999.90;;;;;;;;;;4992375;28;20030;-88
2021/12/07 13:55:09;;;;;;;1772.60;587.05;;;;;;;;;;4991695;28;20037;-89
2021/12/07 13:57:36;;;;;;;1484.75;544.95;;;;;;;;;;4991719;28;20045;-89
2021/12/07 14:00:11;;;;;;;1999.90;999.90;;;;;;;;;;4991225;28;20034;-89
2021/12/07 14:02:38;;;;;;;1999.90;999.90;;;;;;;;;;5011146;28;20042;-89
2021/12/07 14:05:07;;;;;;;846.40;70.40;;;;;;;;;;4954922;28;20499;-88
2021/12/07 14:07:33;;;;;;;757.45;61.70;;;;;;;;;;5008594;28;20544;-89
2021/12/07 14:10:13;;;;;;;1394.05;538.15;;;;;;;;;;4965262;28;20488;-91
2021/12/07 14:12:38;;;;;;;1999.90;999.90;;;;;;;;;;4964051;28;20543;-90
2021/12/07 14:15:07;;;;;;;1678.28;765.03;;;;;;;;;;4994400;28;20046;-88
2021/12/07 14:17:40;;;;;;;1780.00;771.70;;;;;;;;;;4963154;28;20030;-88
2021/12/07 14:20:06;;;;;;;1434.63;155.70;;;;;;;;;;4963215;28;20030;-89
2021/12/07 14:22:31;;;;;;;1999.90;999.90;;;;;;;;;;4978725;28;20100;-85
2021/12/07 14:24:57;;;;;;;1358.00;524.72;;;;;;;;;;4977947;28;20480;-85
2021/12/07 14:27:22;;;;;;;1686.13;564.08;;;;;;;;;;4994230;28;20109;-87
2021/12/07 14:29:47;;;;;;;1935.10;786.08;;;;;;;;;;4977652;28;20037;-87
2021/12/07 14:32:13;;;;;;;1873.05;784.30;;;;;;;;;;4978075;28;20038;-82
2021/12/07 14:34:42;;;;;;;1756.30;784.67;;;;;;;;;;4976872;28;20117;-80
2021/12/07 14:37:07;;;;;;;1768.47;560.03;;;;;;;;;;4969078;28;20072;-80
2021/12/07 14:39:40;;;;;;;1999.90;999.90;;;;;;;;;;4974191;28;20034;-81
2021/12/07 14:42:08;;;;;;;1999.90;999.90;;;;;;;;;;4990886;28;20042;-80
2021/12/07 14:44:38;;;;;;;1934.68;601.10;;;;;;;;;;4993751;28;20034;-80
2021/12/07 14:47:06;;;;;;;1805.07;593.22;;;;;;;;;;4979573;28;20046;-83
2021/12/07 14:49:33;;;;;;;1559.90;174.57;;;;;;;;;;4982010;28;20101;-83
2021/12/07 14:51:58;;;;;;;1925.07;234.75;;;;;;;;;;4997884;28;20022;-84
2021/12/07 14:54:24;;;;;;;1999.90;999.90;;;;;;;;;;4980837;28;20029;-83
2021/12/07 14:56:50;;;;;;;1832.10;244.15;;;;;;;;;;4997611;28;20057;-83
2021/12/07 14:59:18;;;;;;;1999.90;999.90;;;;;;;;;;4980614;28;20036;-83
2021/12/07 15:01:55;;;;;;;1999.90;999.90;;;;;;;;;;4997183;28;20034;-83
2021/12/07 15:04:21;;;;;;;1999.90;999.90;;;;;;;;;;4996315;28;20041;-83
2021/12/07 15:06:48;;;;;;;1713.95;229.43;;;;;;;;;;4960907;28;20046;-83
2021/12/07 15:09:14;;;;;;;1894.20;787.10;;;;;;;;;;4988146;28;20034;-82
2021/12/07 15:11:42;;;;;;;1663.72;553.00;;;;;;;;;;4957320;28;20038;-83
2021/12/07 15:14:09;;;;;;;1999.90;999.90;;;;;;;;;;5013151;28;20387;-83
2021/12/07 15:16:38;;;;;;;1999.90;999.90;;;;;;;;;;4977646;28;20043;-84
2021/12/07 15:19:03;;;;;;;1999.90;302.88;;;;;;;;;;4974644;28;20030;-83
2021/12/07 15:21:31;;;;;;;1999.90;999.90;;;;;;;;;;4978023;28;20496;-84
2021/12/07 15:24:00;;;;;;;1796.95;195.32;;;;;;;;;;4978999;28;20483;-84
2021/12/07 15:26:26;;;;;;;1168.63;122.80;;;;;;;;;;4980426;28;20064;-84
2021/12/07 15:28:57;;;;;;;1922.55;813.00;;;;;;;;;;4980320;28;20088;-83
2021/12/07 15:31:23;;;;;;;1665.75;244.65;;;;;;;;;;4997963;28;20034;-84
2021/12/07 15:33:50;;;;;;;1766.05;583.63;;;;;;;;;;4980559;28;20041;-84